createdAt,value
2023-01-25T00:01:26.319Z,101769.74
2023-01-25T00:03:59.130Z,101772.34
2023-01-25T00:06:31.322Z,101773.93
2023-01-25T00:09:03.662Z,101771.83
2023-01-25T00:11:34.146Z,101770.41
2023-01-25T00:14:07.071Z,101771.64
2023-01-25T00:16:39.887Z,101771.46
2023-01-25T00:19:13.160Z,101766.52
2023-01-25T00:21:45.270Z,101766.85
2023-01-25T00:24:16.015Z,101763.88
2023-01-25T00:26:48.295Z,101765.31
2023-01-25T00:29:19.130Z,101761.99
2023-01-25T00:32:04.261Z,101762.89
2023-01-25T00:34:49.314Z,101763.76
2023-01-25T00:37:31.461Z,101758.48
2023-01-25T00:40:03.698Z,101759.70
2023-01-25T00:42:35.857Z,101759.52
2023-01-25T00:45:11.699Z,101760.19
2023-01-25T00:47:44.060Z,101760.87
2023-01-25T00:50:14.665Z,101764.04
2023-01-25T00:52:47.089Z,101762.30
2023-01-25T00:55:19.799Z,101764.92
2023-01-25T00:57:53.747Z,101761.20
2023-01-25T01:00:24.592Z,101752.27
2023-01-25T01:02:59.798Z,101747.19
2023-01-25T01:05:36.743Z,101742.11
2023-01-25T01:08:09.263Z,101738.95
2023-01-25T01:10:41.780Z,101732.09
2023-01-25T01:13:14.051Z,101738.93
2023-01-25T01:15:47.141Z,101743.48
2023-01-25T01:18:17.733Z,101737.17
2023-01-25T01:20:53.081Z,101730.33
2023-01-25T01:23:26.979Z,101730.33
2023-01-25T01:26:02.735Z,101729.25
2023-01-25T01:28:39.568Z,101724.29
2023-01-25T01:31:15.068Z,101720.77
2023-01-25T01:33:54.312Z,101713.58
2023-01-25T01:36:31.403Z,101711.97
2023-01-25T01:39:03.602Z,101710.94
2023-01-25T01:41:35.891Z,101706.75
2023-01-25T01:44:06.736Z,101706.73
2023-01-25T01:46:40.792Z,101704.30
2023-01-25T01:49:21.097Z,101697.29
2023-01-25T01:51:58.709Z,101691.31
2023-01-25T01:54:35.854Z,101689.55
2023-01-25T01:57:12.137Z,101689.87
2023-01-25T01:59:50.272Z,101684.95
2023-01-25T02:02:23.963Z,101681.60
2023-01-25T02:04:59.192Z,101678.95
2023-01-25T02:07:35.234Z,101673.15
2023-01-25T02:10:10.831Z,101673.01
2023-01-25T02:12:45.657Z,101670.72
2023-01-25T02:15:18.237Z,101672.27
2023-01-25T02:17:52.522Z,101672.23
2023-01-25T02:20:33.097Z,101669.39
2023-01-25T02:23:12.452Z,101672.70
2023-01-25T02:25:47.017Z,101670.73
2023-01-25T02:28:24.253Z,101668.23
2023-01-25T02:30:56.559Z,101669.63
2023-01-25T02:33:30.233Z,101669.10
2023-01-25T02:36:25.246Z,101667.55
2023-01-25T02:39:01.886Z,101663.70
2023-01-25T02:41:39.764Z,101662.33
2023-01-25T02:44:16.181Z,101656.70
2023-01-25T02:46:48.887Z,101657.38
2023-01-25T02:49:22.041Z,101655.58
2023-01-25T02:51:57.552Z,101654.17
2023-01-25T03:07:21.452Z,101653.80
2023-01-25T03:09:54.038Z,101650.65
2023-01-25T03:12:26.618Z,101653.39
2023-01-25T03:14:59.991Z,101654.89
2023-01-25T03:17:32.393Z,101653.76
2023-01-25T03:20:06.219Z,101651.92
2023-01-25T03:22:38.837Z,101650.62
2023-01-25T03:25:12.840Z,101651.91
2023-01-25T03:27:49.670Z,101648.98
2023-01-25T03:30:22.059Z,101643.23
2023-01-25T03:32:54.263Z,101643.95
2023-01-25T03:35:24.714Z,101645.00
2023-01-25T03:37:57.785Z,101644.84
2023-01-25T03:40:30.125Z,101639.58
2023-01-25T03:43:00.659Z,101638.56
2023-01-25T03:45:33.031Z,101638.41
2023-01-25T03:48:07.477Z,101632.64
2023-01-25T03:50:39.578Z,101631.61
2023-01-25T03:53:29.282Z,101626.55
2023-01-25T03:56:09.686Z,101628.67
2023-01-25T03:58:42.411Z,101632.01
2023-01-25T04:01:15.399Z,101629.91
2023-01-25T04:03:47.748Z,101625.73
2023-01-25T04:06:20.101Z,101625.11
2023-01-25T04:08:52.601Z,101624.44
2023-01-25T04:11:25.170Z,101620.23
2023-01-25T04:13:57.261Z,101617.75
2023-01-25T04:16:31.579Z,101614.77
2023-01-25T04:19:27.046Z,101609.15
2023-01-25T04:22:02.040Z,101608.42
2023-01-25T04:24:38.617Z,101605.26
2023-01-25T04:27:10.051Z,101602.30
2023-01-25T04:29:48.408Z,101604.12
2023-01-25T04:32:23.621Z,101605.15
2023-01-25T04:34:56.229Z,101603.03
2023-01-25T04:37:29.716Z,101603.91
2023-01-25T04:40:04.270Z,101601.28
2023-01-25T04:42:40.580Z,101598.82
2023-01-25T04:45:14.253Z,101600.55
2023-01-25T04:47:46.661Z,101600.02
2023-01-25T04:50:20.009Z,101599.85
2023-01-25T04:52:52.640Z,101596.86
2023-01-25T04:55:25.257Z,101593.34
2023-01-25T04:57:58.218Z,101597.38
2023-01-25T05:00:31.140Z,101593.66
2023-01-25T05:03:05.541Z,101591.03
2023-01-25T05:05:39.728Z,101585.58
2023-01-25T05:08:15.484Z,101585.75
2023-01-25T05:10:48.591Z,101583.45
2023-01-25T05:13:43.753Z,101578.67
2023-01-25T05:16:25.775Z,101578.33
2023-01-25T05:18:59.525Z,101580.08
2023-01-25T05:22:15.524Z,101577.09
2023-01-25T05:24:50.399Z,101574.64
2023-01-25T05:27:23.691Z,101576.92
2023-01-25T05:29:59.098Z,101575.88
2023-01-25T05:32:42.461Z,101576.25
2023-01-25T05:35:14.696Z,101575.25
2023-01-25T05:37:48.240Z,101573.35
2023-01-25T05:40:24.218Z,101571.27
2023-01-25T05:42:59.926Z,101564.98
2023-01-25T05:45:33.243Z,101566.22
2023-01-25T05:48:06.173Z,101563.07
2023-01-25T05:50:38.375Z,101565.88
2023-01-25T05:53:14.352Z,101559.54
2023-01-25T05:55:46.537Z,101561.61
2023-01-25T05:58:21.293Z,101556.67
2023-01-25T06:00:53.686Z,101558.95
2023-01-25T06:03:32.614Z,101561.59
2023-01-25T06:06:06.599Z,101564.06
2023-01-25T06:08:39.808Z,101562.19
2023-01-25T06:11:14.945Z,101558.94
2023-01-25T06:13:50.489Z,101556.70
2023-01-25T06:16:23.179Z,101556.89
2023-01-25T06:19:24.344Z,101557.27
2023-01-25T06:22:11.400Z,101553.64
2023-01-25T06:24:43.702Z,101553.82
2023-01-25T06:27:15.817Z,101558.39
2023-01-25T06:29:46.508Z,101556.32
2023-01-25T06:32:18.650Z,101553.54
2023-01-25T06:34:50.986Z,101546.11
2023-01-25T06:37:25.967Z,101546.27
2023-01-25T06:39:56.477Z,101548.67
2023-01-25T06:42:28.684Z,101551.98
2023-01-25T06:45:00.892Z,101549.48
2023-01-25T06:47:32.972Z,101545.40
2023-01-25T06:50:05.964Z,101545.54
2023-01-25T06:52:41.284Z,101544.67
2023-01-25T06:55:16.718Z,101540.45
2023-01-25T06:57:49.365Z,101537.98
2023-01-25T07:00:22.431Z,101536.59
2023-01-25T07:02:54.602Z,101531.31
2023-01-25T07:05:28.380Z,101521.64
2023-01-25T07:08:00.726Z,101522.48
2023-01-25T07:10:33.074Z,101524.06
2023-01-25T07:13:06.097Z,101526.55
2023-01-25T07:15:38.480Z,101526.69
2023-01-25T07:18:16.298Z,101525.77
2023-01-25T07:20:49.082Z,101523.32
2023-01-25T07:23:23.165Z,101518.95
2023-01-25T07:25:55.297Z,101519.30
2023-01-25T07:28:26.163Z,101516.48
2023-01-25T07:30:58.254Z,101512.28
2023-01-25T07:33:28.864Z,101510.33
2023-01-25T07:36:04.485Z,101509.63
2023-01-25T07:38:37.507Z,101510.50
2023-01-25T07:41:09.997Z,101516.48
2023-01-25T07:43:42.190Z,101512.79
2023-01-25T07:46:17.378Z,101512.78
2023-01-25T07:48:51.771Z,101515.42
2023-01-25T07:51:27.215Z,101510.86
2023-01-25T07:54:01.067Z,101513.83
2023-01-25T07:56:35.021Z,101513.48
2023-01-25T07:59:09.058Z,101513.50
2023-01-25T08:01:42.078Z,101511.58
2023-01-25T08:04:14.266Z,101512.27
2023-01-25T08:06:47.927Z,101509.30
2023-01-25T08:09:20.879Z,101508.77
2023-01-25T08:11:53.749Z,101506.48
2023-01-25T08:14:25.951Z,101504.56
2023-01-25T08:16:56.584Z,101499.84
2023-01-25T08:19:28.819Z,101496.35
2023-01-25T08:21:59.465Z,101492.80
2023-01-25T08:24:31.722Z,101492.09
2023-01-25T08:27:03.994Z,101490.48
2023-01-25T08:29:36.396Z,101487.79
2023-01-25T08:32:08.224Z,101483.88
2023-01-25T08:34:41.364Z,101479.09
2023-01-25T08:37:14.808Z,101475.52
2023-01-25T08:39:47.385Z,101475.29
2023-01-25T08:42:18.000Z,101472.42
2023-01-25T08:44:50.176Z,101473.27
2023-01-25T08:47:20.807Z,101471.13
2023-01-25T08:49:55.377Z,101467.93
2023-01-25T08:52:27.691Z,101465.77
2023-01-25T08:55:00.913Z,101466.82
2023-01-25T08:57:33.313Z,101465.02
2023-01-25T09:00:07.777Z,101464.08
2023-01-25T09:02:43.206Z,101463.00
2023-01-25T09:05:15.588Z,101465.04
2023-01-25T09:07:56.658Z,101461.61
2023-01-25T09:10:29.430Z,101454.21
2023-01-25T09:13:06.368Z,101458.07
2023-01-25T09:15:39.693Z,101457.68
2023-01-25T09:18:15.605Z,101451.16
2023-01-25T09:20:50.611Z,101451.31
2023-01-25T09:23:23.850Z,101448.14
2023-01-25T09:26:05.702Z,101444.44
2023-01-25T09:28:40.757Z,101435.55
2023-01-25T09:31:21.460Z,101432.70
2023-01-25T09:34:24.399Z,101428.14
2023-01-25T09:37:05.478Z,101426.57
2023-01-25T09:39:36.175Z,101428.50
2023-01-25T09:42:38.355Z,101424.46
2023-01-25T09:45:23.588Z,101421.11
2023-01-25T09:48:27.406Z,101420.77
2023-01-25T09:51:19.651Z,101416.04
2023-01-25T09:53:53.702Z,101416.98
2023-01-25T09:56:29.604Z,101412.20
2023-01-25T09:59:05.735Z,101415.53
2023-01-25T10:01:48.199Z,101408.58
2023-01-25T10:04:23.728Z,101407.02
2023-01-25T10:07:01.576Z,101400.29
2023-01-25T10:09:42.686Z,101398.65
2023-01-25T10:12:20.934Z,101403.23
2023-01-25T10:14:53.618Z,101395.30
2023-01-25T10:17:38.402Z,101396.70
2023-01-25T10:20:25.955Z,101393.53
2023-01-25T10:23:19.560Z,101385.27
2023-01-25T10:26:23.340Z,101377.19
2023-01-25T10:29:04.132Z,101372.72
2023-01-25T10:31:44.176Z,101370.22
2023-01-25T10:34:20.863Z,101365.26
2023-01-25T10:36:57.910Z,101360.68
2023-01-25T10:39:33.779Z,101357.88
2023-01-25T10:42:13.045Z,101351.88
2023-01-25T10:44:45.259Z,101346.64
2023-01-25T10:47:25.147Z,101345.77
2023-01-25T10:49:59.191Z,101338.77
2023-01-25T10:52:32.954Z,101336.36
2023-01-25T10:55:17.467Z,101339.90
2023-01-25T10:57:59.787Z,101330.09
2023-01-25T11:00:37.755Z,101330.48
2023-01-25T11:03:23.791Z,101325.95
2023-01-25T11:06:00.273Z,101324.82
2023-01-25T11:08:38.460Z,101323.95
2023-01-25T11:11:32.661Z,101315.54
2023-01-25T11:14:16.215Z,101314.48
2023-01-25T11:16:49.856Z,101305.51
2023-01-25T11:19:33.803Z,101303.73
2023-01-25T11:22:07.986Z,101296.70
2023-01-25T11:24:40.080Z,101286.46
2023-01-25T11:27:14.941Z,101277.73
2023-01-25T11:29:47.876Z,101274.35
2023-01-25T11:32:23.861Z,101269.74
2023-01-25T11:34:57.626Z,101267.46
2023-01-25T11:37:46.575Z,101262.55
2023-01-25T11:40:24.635Z,101260.39
2023-01-25T11:43:08.466Z,101258.75
2023-01-25T11:46:01.630Z,101248.40
2023-01-25T11:48:51.923Z,101245.16
2023-01-25T11:51:30.329Z,101246.29
2023-01-25T11:54:13.934Z,101241.48
2023-01-25T11:56:59.049Z,101233.65
2023-01-25T11:59:49.167Z,101225.70
2023-01-25T12:02:46.864Z,101217.73
2023-01-25T12:05:40.157Z,101212.28
2023-01-25T12:08:30.935Z,101213.33
2023-01-25T12:11:13.567Z,101209.09
2023-01-25T12:13:56.704Z,101211.50
2023-01-25T12:16:44.928Z,101210.73
2023-01-25T12:19:37.842Z,101206.83
2023-01-25T12:22:32.845Z,101213.98
2023-01-25T12:25:20.507Z,101200.88
2023-01-25T12:28:07.089Z,101190.65
2023-01-25T12:30:48.510Z,101185.84
2023-01-25T12:33:30.560Z,101185.11
2023-01-25T12:36:10.453Z,101184.17
2023-01-25T12:38:50.431Z,101185.22
2023-01-25T12:41:31.692Z,101178.36
2023-01-25T12:44:10.715Z,101176.20
2023-01-25T12:46:46.708Z,101168.24
2023-01-25T12:49:25.245Z,101164.55
2023-01-25T12:52:00.516Z,101164.90
2023-01-25T12:54:36.364Z,101164.98
2023-01-25T12:57:16.961Z,101162.08
2023-01-25T13:00:01.601Z,101162.77
2023-01-25T13:02:52.496Z,101159.39
2023-01-25T13:05:30.393Z,101151.83
2023-01-25T13:08:23.112Z,101146.10
2023-01-25T13:11:11.278Z,101146.98
2023-01-25T13:13:46.602Z,101144.91
2023-01-25T13:16:41.210Z,101142.34
2023-01-25T13:19:41.911Z,101139.02
2023-01-25T13:22:16.467Z,101132.57
2023-01-25T13:25:11.210Z,101130.69
2023-01-25T13:27:43.593Z,101129.37
2023-01-25T13:30:32.419Z,101126.52
2023-01-25T13:33:07.738Z,101124.34
2023-01-25T13:35:47.049Z,101121.17
2023-01-25T13:38:36.916Z,101116.03
2023-01-25T13:41:17.883Z,101113.95
2023-01-25T13:44:20.131Z,101106.92
2023-01-25T13:46:52.209Z,101096.16
2023-01-25T13:49:25.877Z,101095.95
2023-01-25T13:51:59.972Z,101092.30
2023-01-25T13:54:32.350Z,101089.73
2023-01-25T13:57:13.569Z,101088.23
2023-01-25T13:59:46.619Z,101087.03
2023-01-25T14:02:23.187Z,101088.70
2023-01-25T14:04:56.976Z,101085.45
2023-01-25T14:07:34.679Z,101087.40
2023-01-25T14:10:17.251Z,101080.96
2023-01-25T14:12:49.671Z,101077.39
2023-01-25T14:15:25.900Z,101070.83
2023-01-25T14:18:16.434Z,101061.26
2023-01-25T14:20:50.406Z,101060.77
2023-01-25T14:23:28.767Z,101059.83
2023-01-25T14:26:02.247Z,101061.73
2023-01-25T14:28:34.468Z,101055.05
2023-01-25T14:31:24.104Z,101055.02
2023-01-25T14:33:59.008Z,101053.41
2023-01-25T14:36:34.513Z,101052.33
2023-01-25T14:39:18.192Z,101048.94
2023-01-25T14:42:01.046Z,101047.48
2023-01-25T14:44:35.934Z,101047.80
2023-01-25T14:47:30.243Z,101045.70
2023-01-25T14:50:33.265Z,101039.02
2023-01-25T14:53:18.641Z,101034.79
2023-01-25T14:55:51.917Z,101029.69
2023-01-25T14:58:31.652Z,101029.20
2023-01-25T15:01:05.447Z,101022.41
2023-01-25T15:03:52.160Z,101021.96
2023-01-25T15:06:48.852Z,101020.42
2023-01-25T15:09:59.582Z,101017.81
2023-01-25T15:12:34.927Z,101012.95
2023-01-25T15:15:22.602Z,101012.60
2023-01-25T15:18:22.089Z,101006.10
2023-01-25T15:21:00.165Z,101001.55
2023-01-25T15:23:41.071Z,101000.48
2023-01-25T15:26:23.000Z,101001.45
2023-01-25T15:28:57.474Z,100997.23
2023-01-25T15:31:38.152Z,100998.17
2023-01-25T15:34:18.575Z,100996.31
2023-01-25T15:36:57.959Z,100998.70
2023-01-25T15:39:39.980Z,100993.46
2023-01-25T15:42:12.765Z,100989.05
2023-01-25T15:44:48.109Z,100986.86
2023-01-25T15:47:23.856Z,100985.36
2023-01-25T15:49:56.428Z,100983.57
2023-01-25T15:52:34.667Z,100977.77
2023-01-25T15:55:13.966Z,100974.01
2023-01-25T15:57:50.135Z,100971.23
2023-01-25T16:00:36.451Z,100974.24
2023-01-25T16:03:13.188Z,100970.04
2023-01-25T16:05:50.093Z,100965.14
2023-01-25T16:08:23.784Z,100963.66
2023-01-25T16:10:54.535Z,100956.77
2023-01-25T16:13:29.629Z,100957.42
2023-01-25T16:16:11.220Z,100954.24
2023-01-25T16:18:48.974Z,100946.89
2023-01-25T16:21:21.125Z,100945.46
2023-01-25T16:23:51.883Z,100946.55
2023-01-25T16:26:27.163Z,100947.66
2023-01-25T16:28:59.609Z,100950.45
2023-01-25T16:31:33.489Z,100941.86
2023-01-25T16:34:15.043Z,100938.65
2023-01-25T16:36:50.656Z,100938.09
2023-01-25T16:39:24.863Z,100935.98
2023-01-25T16:41:57.816Z,100935.95
2023-01-25T16:44:31.972Z,100932.98
2023-01-25T16:47:04.903Z,100931.59
2023-01-25T16:49:37.261Z,100928.27
2023-01-25T16:52:11.758Z,100923.34
2023-01-25T16:54:44.204Z,100920.58
2023-01-25T16:57:20.737Z,100918.63
2023-01-25T16:59:55.988Z,100916.12
2023-01-25T17:02:28.645Z,100912.83
2023-01-25T17:05:01.017Z,100909.59
2023-01-25T17:07:33.483Z,100907.36
2023-01-25T17:10:08.433Z,100905.23
2023-01-25T17:12:45.457Z,100900.48
2023-01-25T17:15:19.973Z,100895.36
2023-01-25T17:17:52.266Z,100896.21
2023-01-25T17:20:24.971Z,100888.56
2023-01-25T17:22:56.976Z,100884.93
2023-01-25T17:25:35.433Z,100886.55
2023-01-25T17:28:11.187Z,100880.30
2023-01-25T17:30:44.224Z,100875.26
2023-01-25T17:33:16.605Z,100876.54
2023-01-25T17:35:49.720Z,100878.84
2023-01-25T17:38:22.001Z,100874.96
2023-01-25T17:40:56.733Z,100875.86
2023-01-25T17:43:32.986Z,100876.19
2023-01-25T17:46:16.646Z,100871.16
2023-01-25T17:48:49.021Z,100868.37
2023-01-25T17:51:25.002Z,100866.44
2023-01-25T17:53:58.416Z,100861.52
2023-01-25T17:56:30.914Z,100855.26
2023-01-25T17:59:04.753Z,100852.15
2023-01-25T18:01:37.470Z,100846.19
2023-01-25T18:04:12.771Z,100840.07
2023-01-25T18:06:45.049Z,100825.87
2023-01-25T18:09:19.582Z,100822.52
2023-01-25T18:11:51.826Z,100816.40
2023-01-25T18:14:24.354Z,100811.86
2023-01-25T18:16:56.666Z,100810.14
2023-01-25T18:19:33.064Z,100808.98
2023-01-25T18:22:08.395Z,100799.93
2023-01-25T18:24:44.758Z,100799.30
2023-01-25T18:27:22.676Z,100802.11
2023-01-25T18:30:27.339Z,100800.33
2023-01-25T18:32:59.582Z,100789.83
2023-01-25T18:35:38.189Z,100781.02
2023-01-25T18:38:24.859Z,100775.90
2023-01-25T18:40:57.538Z,100780.11
2023-01-25T18:43:29.920Z,100778.19
2023-01-25T18:46:05.346Z,100777.93
2023-01-25T18:48:37.691Z,100775.19
2023-01-25T18:51:19.577Z,100779.73
2023-01-25T18:53:56.304Z,100776.37
2023-01-25T18:56:34.637Z,100772.77
2023-01-25T18:59:07.194Z,100767.35
2023-01-25T19:01:39.459Z,100764.06
2023-01-25T19:04:11.609Z,100760.91
2023-01-25T19:06:47.937Z,100758.83
2023-01-25T19:09:23.435Z,100759.17
2023-01-25T19:11:55.691Z,100752.63
2023-01-25T19:14:39.184Z,100751.08
2023-01-25T19:17:23.035Z,100750.20
2023-01-25T19:20:06.890Z,100747.02
2023-01-25T19:22:49.773Z,100745.39
2023-01-25T19:25:31.527Z,100738.02
2023-01-25T19:28:16.219Z,100736.55
2023-01-25T19:30:57.550Z,100731.45
2023-01-25T19:33:40.432Z,100730.62
2023-01-25T19:36:19.237Z,100725.35
2023-01-25T19:39:04.884Z,100727.92
2023-01-25T19:41:43.322Z,100726.55
2023-01-25T19:44:17.360Z,100721.71
2023-01-25T19:46:54.201Z,100715.70
2023-01-25T19:49:32.636Z,100715.88
2023-01-25T19:52:09.938Z,100715.91
2023-01-25T19:54:50.153Z,100712.41
2023-01-25T19:57:33.801Z,100712.42
2023-01-25T20:03:16.606Z,100710.74
2023-01-25T20:06:04.176Z,100706.62
2023-01-25T20:08:42.454Z,100703.36
2023-01-25T20:11:20.073Z,100701.64
2023-01-25T20:13:56.213Z,100701.11
2023-01-25T20:16:30.506Z,100697.96
2023-01-25T20:19:03.303Z,100695.73
2023-01-25T20:21:38.319Z,100696.41
2023-01-25T20:24:11.650Z,100694.17
2023-01-25T20:26:44.371Z,100690.38
2023-01-25T20:29:17.575Z,100682.30
2023-01-25T20:31:50.209Z,100681.22
2023-01-25T20:34:23.991Z,100683.13
2023-01-25T20:37:00.366Z,100677.84
2023-01-25T20:39:32.833Z,100678.00
2023-01-25T20:42:03.274Z,100677.63
2023-01-25T20:44:35.378Z,100668.63
2023-01-25T20:47:06.088Z,100665.86
2023-01-25T20:49:38.413Z,100670.52
2023-01-25T20:52:13.804Z,100672.36
2023-01-25T20:54:46.060Z,100673.58
2023-01-25T20:57:18.627Z,100669.65
2023-01-25T20:59:53.881Z,100663.50
2023-01-25T21:02:24.543Z,100658.05
2023-01-25T21:04:56.797Z,100658.46
2023-01-25T21:07:29.100Z,100656.04
2023-01-25T21:09:59.777Z,100653.41
2023-01-25T21:12:33.487Z,100649.79
2023-01-25T21:15:06.107Z,100647.33
2023-01-25T21:17:39.546Z,100650.30
2023-01-25T21:20:13.781Z,100644.88
2023-01-25T21:22:45.950Z,100645.16
2023-01-25T21:25:16.569Z,100645.75
2023-01-25T21:27:49.366Z,100645.31
2023-01-25T21:30:23.233Z,100644.66
2023-01-25T21:32:55.396Z,100647.98
2023-01-25T21:35:27.381Z,100650.55
2023-01-25T21:37:59.548Z,100648.98
2023-01-25T21:40:30.638Z,100643.86
2023-01-25T21:43:03.036Z,100644.02
2023-01-25T21:45:50.983Z,100643.16
2023-01-25T21:48:37.029Z,100642.34
2023-01-25T21:51:43.966Z,100643.34
2023-01-25T21:54:16.733Z,100637.48
2023-01-25T21:56:50.127Z,100637.10
2023-01-25T21:59:23.053Z,100633.60
2023-01-25T22:01:56.529Z,100630.09
2023-01-25T22:04:28.827Z,100628.32
2023-01-25T22:07:00.979Z,100627.74
2023-01-25T22:09:31.588Z,100626.83
2023-01-25T22:12:04.003Z,100626.11
2023-01-25T22:14:36.731Z,100616.31
2023-01-25T22:17:08.973Z,100616.83
2023-01-25T22:19:41.243Z,100614.58
2023-01-25T22:22:11.812Z,100606.15
2023-01-25T22:24:43.971Z,100607.08
2023-01-25T22:27:37.724Z,100603.17
2023-01-25T22:30:13.819Z,100599.80
2023-01-25T22:32:46.168Z,100592.23
2023-01-25T22:35:18.404Z,100585.85
2023-01-25T22:37:48.988Z,100582.57
2023-01-25T22:40:21.431Z,100578.05
2023-01-25T22:42:53.535Z,100577.23
2023-01-25T22:45:25.780Z,100575.76
2023-01-25T22:47:57.805Z,100574.11
2023-01-25T22:50:28.323Z,100571.02
2023-01-25T22:53:00.720Z,100563.95
2023-01-25T22:55:33.639Z,100564.54
2023-01-25T22:58:05.875Z,100563.91
2023-01-25T23:00:39.009Z,100558.14
2023-01-25T23:03:11.858Z,100559.20
2023-01-25T23:05:44.176Z,100558.77
2023-01-25T23:08:14.701Z,100555.75
2023-01-25T23:10:46.818Z,100552.58
2023-01-25T23:13:17.472Z,100543.49
2023-01-25T23:15:49.671Z,100537.49
2023-01-25T23:18:39.599Z,100534.20
2023-01-25T23:21:11.708Z,100532.48
2023-01-25T23:23:43.225Z,100530.63
2023-01-25T23:26:16.515Z,100527.00
2023-01-25T23:28:53.322Z,100523.70
2023-01-25T23:31:26.304Z,100523.56
2023-01-25T23:34:01.710Z,100524.12
2023-01-25T23:36:35.521Z,100513.23
2023-01-25T23:39:08.032Z,100512.38
2023-01-25T23:41:40.213Z,100508.14
2023-01-25T23:44:12.701Z,100508.41
2023-01-25T23:46:44.941Z,100507.41
2023-01-25T23:49:15.506Z,100504.03
2023-01-25T23:51:47.563Z,100502.58
2023-01-25T23:54:20.646Z,100501.23
2023-01-25T23:56:52.801Z,100497.28
2023-01-25T23:59:25.047Z,100498.06
